Time;durP1;ratioP1;P1;durP2;ratioP2;P2;SDS_P1;SDS_P2;PMS_P1;PMS_P2;Temp;Humidity;BMP_temperature;BMP_pressure;BME280_temperature;BME280_humidity;BME280_pressure;Samples;Min_cycle;Max_cycle;Signal;HPM_P1;HPM_P2
2022/03/22 00:00:07;;;;;;;57.77;26.73;;;;;;;6.07;89.86;102919.06;4939295;29;20101;-84
2022/03/22 00:02:32;;;;;;;54.95;26.45;;;;;;;6.03;89.26;102921.25;4940337;29;20042;-84
2022/03/22 00:04:57;;;;;;;51.87;24.77;;;;;;;6.02;89.03;102919.59;4937712;29;20020;-84
2022/03/22 00:07:23;;;;;;;49.90;24.50;;;;;;;5.99;88.98;102919.91;4937843;29;20023;-84
2022/03/22 00:09:48;;;;;;;53.43;24.20;;;;;;;5.97;89.55;102926.41;4938684;29;20542;-85
2022/03/22 00:12:13;;;;;;;49.17;24.63;;;;;;;5.89;89.27;102920.13;4938886;29;20028;-84
2022/03/22 00:14:39;;;;;;;53.23;24.40;;;;;;;5.83;89.42;102920.84;4938883;29;20645;-83
2022/03/22 00:17:05;;;;;;;47.97;24.00;;;;;;;5.80;89.46;102926.50;4937498;29;20054;-84
2022/03/22 00:19:30;;;;;;;50.45;24.58;;;;;;;5.75;90.14;102928.84;4937842;29;20415;-84
2022/03/22 00:21:55;;;;;;;55.07;25.17;;;;;;;5.69;89.80;102925.06;4937395;29;20063;-84
2022/03/22 00:24:21;;;;;;;54.47;23.33;;;;;;;5.66;89.68;102924.59;4938669;29;20028;-84
2022/03/22 00:26:46;;;;;;;49.07;23.70;;;;;;;5.62;90.12;102929.41;4938503;29;20482;-84
2022/03/22 00:29:11;;;;;;;47.13;23.87;;;;;;;5.58;89.58;102928.94;4937258;29;20028;-84
2022/03/22 00:31:36;;;;;;;51.07;23.57;;;;;;;5.57;89.70;102934.41;4938864;29;20036;-84
2022/03/22 00:34:02;;;;;;;53.60;23.77;;;;;;;5.54;89.41;102929.44;4938790;29;20027;-84
2022/03/22 00:36:27;;;;;;;52.72;23.80;;;;;;;5.51;90.19;102932.44;4937346;29;20030;-84
2022/03/22 00:38:52;;;;;;;49.23;23.40;;;;;;;5.50;90.08;102936.91;4937363;29;20039;-84
2022/03/22 00:41:19;;;;;;;49.70;23.23;;;;;;;5.46;89.98;102931.13;4937990;29;20019;-84
2022/03/22 00:43:44;;;;;;;48.92;24.48;;;;;;;5.42;90.22;102935.13;4936605;28;20016;-85
2022/03/22 00:46:10;;;;;;;48.63;23.47;;;;;;;5.41;90.26;102943.28;4934719;29;20023;-84
2022/03/22 00:48:35;;;;;;;48.35;23.48;;;;;;;5.39;90.00;102940.78;4933296;29;20619;-84
2022/03/22 00:51:01;;;;;;;48.37;22.70;;;;;;;5.36;90.09;102940.31;4935447;29;20380;-84
2022/03/22 00:53:26;;;;;;;51.43;23.50;;;;;;;5.32;90.09;102937.16;4933768;29;20020;-84
2022/03/22 00:55:52;;;;;;;48.40;23.50;;;;;;;5.32;91.10;102939.81;4934112;29;20107;-84
2022/03/22 00:58:18;;;;;;;50.50;23.57;;;;;;;5.30;91.37;102939.16;4932549;29;20034;-83
2022/03/22 01:00:43;;;;;;;55.88;24.58;;;;;;;5.26;91.23;102938.69;4935381;29;20118;-84
2022/03/22 01:03:09;;;;;;;48.00;22.27;;;;;;;5.26;92.11;102937.84;4933869;29;20440;-83
2022/03/22 01:05:35;;;;;;;54.05;23.80;;;;;;;5.24;91.61;102931.84;4935050;29;20047;-83
2022/03/22 01:08:05;;;;;;;49.22;23.45;;;;;;;5.23;91.23;102939.00;4934125;29;20028;-84
2022/03/22 01:10:32;;;;;;;47.33;23.10;;;;;;;5.23;91.30;102940.81;4932823;29;20102;-84
2022/03/22 01:12:58;;;;;;;47.27;22.63;;;;;;;5.22;91.67;102942.66;4934553;29;20074;-85
2022/03/22 01:15:32;;;;;;;48.80;22.37;;;;;;;5.18;91.67;102941.34;4935240;29;20390;-83
2022/03/22 01:17:57;;;;;;;50.45;22.90;;;;;;;5.16;91.66;102943.34;4933957;29;20745;-83
2022/03/22 01:20:27;;;;;;;47.17;23.43;;;;;;;5.10;92.08;102941.38;4934839;29;20032;-84
2022/03/22 01:22:54;;;;;;;49.28;22.80;;;;;;;5.09;92.84;102945.84;4935383;29;20023;-83
2022/03/22 01:25:23;;;;;;;52.75;24.00;;;;;;;5.10;92.82;102944.84;4933119;29;20031;-84
2022/03/22 01:27:49;;;;;;;51.38;22.90;;;;;;;5.11;93.05;102935.06;4932826;29;20027;-84
2022/03/22 01:30:19;;;;;;;53.85;22.58;;;;;;;5.12;92.72;102939.34;4933462;29;20036;-84
2022/03/22 01:32:45;;;;;;;45.80;22.27;;;;;;;5.10;92.63;102947.50;4934552;29;20043;-84
2022/03/22 01:35:10;;;;;;;46.30;21.70;;;;;;;5.12;93.16;102937.53;4934717;29;20028;-84
2022/03/22 01:37:37;;;;;;;45.20;22.37;;;;;;;5.14;93.73;102945.34;4933785;29;20306;-85
2022/03/22 01:40:04;;;;;;;45.53;20.97;;;;;;;5.19;93.79;102935.03;4935083;29;20050;-84
2022/03/22 01:42:29;;;;;;;46.90;21.43;;;;;;;5.26;93.69;102938.69;4933277;29;20299;-84
2022/03/22 01:44:55;;;;;;;43.22;22.05;;;;;;;5.26;93.62;102936.03;4933890;29;20032;-84
2022/03/22 01:47:25;;;;;;;44.17;21.13;;;;;;;5.30;94.17;102947.94;4933657;29;20364;-84
2022/03/22 01:49:52;;;;;;;50.90;22.13;;;;;;;5.34;94.00;102942.28;4933673;29;20115;-84
2022/03/22 01:52:20;;;;;;;45.58;20.83;;;;;;;5.37;93.59;102953.44;4934268;29;20039;-84
2022/03/22 01:54:47;;;;;;;43.40;20.53;;;;;;;5.37;93.51;102945.47;4934659;29;20472;-84
2022/03/22 01:57:13;;;;;;;44.90;21.30;;;;;;;5.33;93.34;102930.84;4933818;29;20358;-84
2022/03/22 01:59:39;;;;;;;47.25;20.65;;;;;;;5.31;93.29;102938.97;4934753;29;20040;-84
2022/03/22 02:07:39;;;;;;;42.72;20.08;;;;;;;5.26;93.44;102932.50;4937433;29;20055;-83
2022/03/22 02:10:05;;;;;;;44.22;20.75;;;;;;;5.26;94.15;102930.72;4934618;29;20059;-83
2022/03/22 02:12:30;;;;;;;45.03;22.00;;;;;;;5.25;93.92;102933.50;4934375;29;20059;-84
2022/03/22 02:14:56;;;;;;;44.10;20.35;;;;;;;5.22;93.61;102928.53;4932942;29;20028;-83
2022/03/22 02:17:21;;;;;;;42.40;20.83;;;;;;;5.20;93.37;102922.59;4932421;29;20035;-84
2022/03/22 02:19:47;;;;;;;42.57;19.63;;;;;;;5.17;94.12;102929.06;4933049;29;20030;-84
2022/03/22 02:22:17;;;;;;;43.45;18.52;;;;;;;5.13;93.82;102925.06;4933495;29;20051;-84
2022/03/22 02:24:43;;;;;;;41.80;19.83;;;;;;;5.08;93.43;102922.09;4933857;29;20091;-84
2022/03/22 02:27:09;;;;;;;40.70;19.70;;;;;;;5.06;94.47;102924.91;4935122;29;20032;-83
2022/03/22 02:29:35;;;;;;;38.05;19.27;;;;;;;5.11;94.10;102929.75;4933345;29;20483;-83
2022/03/22 02:32:02;;;;;;;41.85;19.05;;;;;;;5.15;94.88;102925.72;4931598;29;20488;-83
2022/03/22 02:34:27;;;;;;;40.15;19.25;;;;;;;5.13;93.85;102917.09;4933305;29;20031;-83
2022/03/22 02:36:53;;;;;;;39.03;17.90;;;;;;;5.08;93.98;102922.09;4933611;29;20028;-85
2022/03/22 02:39:18;;;;;;;38.37;18.97;;;;;;;5.05;94.63;102915.28;4932630;29;20407;-83
2022/03/22 02:50:00;;;;;;;37.85;17.52;;;;;;;4.76;93.04;102921.13;5051219;23;20052;-94
2022/03/22 02:56:09;;;;;;;37.03;17.63;;;;;;;4.42;92.74;102896.44;4896632;29;20044;-96
2022/03/22 04:09:01;;;;;;;40.25;18.35;;;;;;;3.57;96.43;102963.69;4932482;29;20047;-91
2022/03/22 04:12:08;;;;;;;39.53;18.20;;;;;;;3.56;97.06;102962.03;4943469;29;20039;-96
2022/03/22 04:23:20;;;;;;;40.22;18.42;;;;;;;3.65;97.99;102963.75;5586353;23;20048;-90
2022/03/22 04:25:45;;;;;;;37.60;17.57;;;;;;;3.59;97.55;102951.09;4923641;29;20118;-94
2022/03/22 09:22:30;;;;;;;42.17;17.20;;;;;;;11.84;62.32;103074.47;4894619;29;20051;-91
2022/03/22 09:46:13;;;;;;;39.67;17.52;;;;;;;12.53;57.62;103074.81;5170255;23;20072;-88
2022/03/22 10:21:46;;;;;;;33.17;17.27;;;;;;;13.74;50.52;103041.50;5950832;23;20025;-87
2022/03/22 10:24:15;;;;;;;35.50;16.90;;;;;;;13.77;49.14;103038.34;5216149;23;20039;-88
2022/03/22 10:30:06;;;;;;;33.90;16.77;;;;;;;14.02;49.35;103040.13;5065281;23;20075;-88
2022/03/22 10:32:51;;;;;;;39.57;18.10;;;;;;;14.19;49.36;103042.19;4919504;29;20303;-88
2022/03/22 10:35:17;;;;;;;36.08;17.58;;;;;;;14.37;48.97;103050.25;4915389;29;20134;-89
2022/03/22 10:37:47;;;;;;;36.90;17.65;;;;;;;14.36;46.77;103043.19;4936564;29;20063;-90
2022/03/22 10:40:27;;;;;;;33.90;16.13;;;;;;;14.45;47.48;103046.41;4938742;29;20024;-87
2022/03/22 10:42:58;;;;;;;32.03;16.83;;;;;;;14.50;45.65;103038.44;4938142;29;20043;-90
2022/03/22 10:45:28;;;;;;;38.35;17.65;;;;;;;14.60;45.97;103040.59;4933144;29;20060;-89
2022/03/22 10:48:04;;;;;;;;;;;;;;;;;;;;;
2022/03/22 11:16:35;;;;;;;36.92;19.08;;;;;;;15.98;44.17;103005.28;4952105;28;20053;-90
2022/03/22 11:19:44;;;;;;;40.47;18.77;;;;;;;16.26;45.09;103025.25;5142290;23;20048;-91
2022/03/22 12:26:22;;;;;;;39.23;15.47;;;;;;;18.58;36.77;102978.69;4894382;29;20040;-86
2022/03/22 12:29:03;;;;;;;29.27;15.30;;;;;;;18.57;37.07;102968.91;4901350;29;20339;-86
2022/03/22 12:41:09;;;;;;;30.30;16.23;;;;;;;18.60;35.67;102939.38;5418521;23;20040;-87
2022/03/22 12:44:43;;;;;;;;;;;;;;;;;;;;;
2022/03/22 15:14:15;;;;;;;25.70;10.37;;;;;;;19.78;27.65;102851.22;5384631;23;20529;-83
2022/03/22 15:43:43;;;;;;;24.50;10.37;;;;;;;19.43;29.36;102803.88;5581581;23;20316;-93
2022/03/22 15:48:55;;;;;;;21.83;10.40;;;;;;;19.47;29.61;102826.72;5717887;23;20418;-85
2022/03/22 15:51:27;;;;;;;23.98;9.25;;;;;;;19.39;28.74;102801.97;4948100;28;20034;-92
2022/03/22 15:54:37;;;;;;;24.35;9.35;;;;;;;19.24;29.54;102789.16;4952781;28;20114;-92
2022/03/22 16:20:54;;;;;;;22.73;10.75;;;;;;;18.40;30.19;102807.03;5163375;23;20059;-94
2022/03/22 17:01:35;;;;;;;24.95;12.88;;;;;;;17.02;35.09;102818.31;5510409;23;20056;-94
2022/03/22 18:53:55;;;;;;;46.37;15.23;;;;;;;11.72;48.19;102869.34;5926637;23;20221;-93
2022/03/22 19:21:42;;;;;;;36.60;16.95;;;;;;;10.79;51.63;102852.56;6029511;23;20019;-91
2022/03/22 20:09:26;;;;;;;30.90;14.48;;;;;;;9.41;57.13;102890.28;4896968;29;20085;-92
2022/03/22 20:11:54;;;;;;;32.95;15.13;;;;;;;9.36;57.68;102898.91;4898485;29;20040;-90
2022/03/22 20:16:55;;;;;;;36.85;15.77;;;;;;;9.16;58.76;102906.00;4997008;23;20053;-90
2022/03/22 20:19:20;;;;;;;33.00;15.47;;;;;;;9.15;58.60;102907.03;4879790;29;20037;-92
2022/03/22 20:21:46;;;;;;;35.42;15.20;;;;;;;9.03;59.27;102899.56;4881161;29;20065;-90
2022/03/22 20:24:12;;;;;;;36.00;15.60;;;;;;;8.99;60.17;102900.97;4879400;29;20025;-91
2022/03/22 20:29:37;;;;;;;35.90;15.17;;;;;;;8.85;59.33;102900.06;4974007;23;20133;-91
2022/03/22 20:32:22;;;;;;;38.13;15.10;;;;;;;8.67;59.93;102891.69;4880636;29;20804;-90
2022/03/22 21:01:24;;;;;;;35.40;15.03;;;;;;;7.97;63.26;102898.47;4963323;28;20317;-92
2022/03/22 21:03:49;;;;;;;36.75;15.40;;;;;;;7.93;63.74;102899.84;4976582;28;20035;-90
2022/03/22 21:09:06;;;;;;;31.33;15.07;;;;;;;7.60;63.20;102878.94;6035153;23;20006;-90
2022/03/22 21:46:11;;;;;;;39.60;15.88;;;;;;;6.95;66.15;102902.69;5320732;23;20115;-90
2022/03/22 21:49:11;;;;;;;33.13;15.00;;;;;;;6.88;66.27;102907.94;4907440;29;20047;-90
2022/03/22 21:55:36;;;;;;;34.17;15.13;;;;;;;6.75;66.84;102905.91;4883714;29;20481;-88
2022/03/22 21:58:56;;;;;;;;;;;;;;;;;;;;;
2022/03/22 22:01:23;;;;;;;39.35;15.27;;;;;;;6.57;68.03;102886.75;4851389;29;20040;-87
2022/03/22 22:50:55;;;;;;;38.17;16.60;;;;;;;5.70;72.59;102894.81;4819923;29;20310;-89
2022/03/22 23:22:12;;;;;;;37.72;16.20;;;;;;;5.14;74.50;102890.38;4875913;29;20484;-88
2022/03/22 23:31:42;;;;;;;32.47;15.15;;;;;;;4.86;75.33;102871.31;4872801;29;20037;-87
2022/03/22 23:36:42;;;;;;;36.47;15.40;;;;;;;4.90;75.76;102882.44;5573460;23;20044;-87
2022/03/22 23:39:08;;;;;;;39.13;16.23;;;;;;;4.86;76.11;102881.94;4900949;29;20047;-88
2022/03/22 23:41:33;;;;;;;36.03;15.67;;;;;;;4.79;76.81;102875.66;4903027;29;20031;-88
2022/03/22 23:47:18;;;;;;;33.53;16.25;;;;;;;4.53;76.75;102852.78;4817249;29;20053;-87
2022/03/22 23:49:44;;;;;;;37.45;15.98;;;;;;;4.59;77.20;102865.38;4829931;29;20087;-87
2022/03/22 23:52:10;;;;;;;43.00;16.65;;;;;;;4.61;76.77;102865.22;4880036;29;20457;-87
2022/03/22 23:54:47;;;;;;;34.37;16.90;;;;;;;4.63;77.00;102873.84;4894653;29;20040;-87
